sensor_id;sensor_type;location;lat;lon;timestamp;temperature;humidity
24162;DHT22;12318;51.262;7.066;2022-08-02T00:01:03;15.70;99.90
24162;DHT22;12318;51.262;7.066;2022-08-02T00:06:19;15.60;99.90
24162;DHT22;12318;51.262;7.066;2022-08-02T00:08:45;15.50;99.90
24162;DHT22;12318;51.262;7.066;2022-08-02T00:11:10;15.60;99.90
24162;DHT22;12318;51.262;7.066;2022-08-02T00:13:36;15.70;99.90
24162;DHT22;12318;51.262;7.066;2022-08-02T00:16:02;15.60;99.90
24162;DHT22;12318;51.262;7.066;2022-08-02T00:18:32;15.60;99.90
24162;DHT22;12318;51.262;7.066;2022-08-02T00:21:00;15.40;99.90
24162;DHT22;12318;51.262;7.066;2022-08-02T00:23:26;15.30;99.90
24162;DHT22;12318;51.262;7.066;2022-08-02T00:25:52;15.30;99.90
24162;DHT22;12318;51.262;7.066;2022-08-02T00:28:21;15.40;99.90
24162;DHT22;12318;51.262;7.066;2022-08-02T00:30:47;15.50;99.90
24162;DHT22;12318;51.262;7.066;2022-08-02T00:33:12;15.50;99.90
24162;DHT22;12318;51.262;7.066;2022-08-02T00:35:41;15.60;99.90
24162;DHT22;12318;51.262;7.066;2022-08-02T00:38:07;15.60;99.90
24162;DHT22;12318;51.262;7.066;2022-08-02T00:40:33;15.70;99.90
24162;DHT22;12318;51.262;7.066;2022-08-02T00:43:05;15.80;99.90
24162;DHT22;12318;51.262;7.066;2022-08-02T00:45:34;15.80;99.90
24162;DHT22;12318;51.262;7.066;2022-08-02T00:48:00;16.00;99.90
24162;DHT22;12318;51.262;7.066;2022-08-02T00:50:28;15.90;99.90
24162;DHT22;12318;51.262;7.066;2022-08-02T00:52:56;15.90;99.90
24162;DHT22;12318;51.262;7.066;2022-08-02T00:55:23;15.80;99.90
24162;DHT22;12318;51.262;7.066;2022-08-02T00:57:52;15.80;99.90
24162;DHT22;12318;51.262;7.066;2022-08-02T01:00:21;15.80;99.90
24162;DHT22;12318;51.262;7.066;2022-08-02T01:02:49;15.90;99.90
24162;DHT22;12318;51.262;7.066;2022-08-02T01:05:16;16.00;99.90
24162;DHT22;12318;51.262;7.066;2022-08-02T01:07:45;15.90;99.90
24162;DHT22;12318;51.262;7.066;2022-08-02T01:10:11;15.80;99.90
24162;DHT22;12318;51.262;7.066;2022-08-02T01:12:39;15.70;99.90
24162;DHT22;12318;51.262;7.066;2022-08-02T01:15:08;15.60;99.90
24162;DHT22;12318;51.262;7.066;2022-08-02T01:17:54;15.60;99.90
24162;DHT22;12318;51.262;7.066;2022-08-02T01:23:12;15.60;99.90
24162;DHT22;12318;51.262;7.066;2022-08-02T01:36:57;15.40;99.90
24162;DHT22;12318;51.262;7.066;2022-08-02T01:39:26;15.60;99.90
24162;DHT22;12318;51.262;7.066;2022-08-02T01:41:53;15.80;99.90
24162;DHT22;12318;51.262;7.066;2022-08-02T01:44:21;15.60;99.90
24162;DHT22;12318;51.262;7.066;2022-08-02T01:46:49;15.60;99.90
24162;DHT22;12318;51.262;7.066;2022-08-02T01:49:20;15.70;99.90
24162;DHT22;12318;51.262;7.066;2022-08-02T01:51:52;15.80;99.90
24162;DHT22;12318;51.262;7.066;2022-08-02T01:54:37;15.80;99.90
24162;DHT22;12318;51.262;7.066;2022-08-02T01:57:09;15.80;99.90
24162;DHT22;12318;51.262;7.066;2022-08-02T01:59:39;15.60;99.90
24162;DHT22;12318;51.262;7.066;2022-08-02T02:02:07;15.60;99.90
24162;DHT22;12318;51.262;7.066;2022-08-02T02:04:34;15.60;99.90
24162;DHT22;12318;51.262;7.066;2022-08-02T02:07:05;15.70;99.90
24162;DHT22;12318;51.262;7.066;2022-08-02T02:09:36;15.70;99.90
24162;DHT22;12318;51.262;7.066;2022-08-02T02:12:03;15.60;99.90
24162;DHT22;12318;51.262;7.066;2022-08-02T02:14:29;15.40;99.90
24162;DHT22;12318;51.262;7.066;2022-08-02T02:16:56;15.40;99.90
24162;DHT22;12318;51.262;7.066;2022-08-02T02:19:24;15.30;99.90
24162;DHT22;12318;51.262;7.066;2022-08-02T02:21:51;15.30;99.90
24162;DHT22;12318;51.262;7.066;2022-08-02T02:24:19;15.30;99.90
24162;DHT22;12318;51.262;7.066;2022-08-02T02:26:45;15.30;99.90
24162;DHT22;12318;51.262;7.066;2022-08-02T02:29:12;15.30;99.90
24162;DHT22;12318;51.262;7.066;2022-08-02T02:31:40;15.20;99.90
24162;DHT22;12318;51.262;7.066;2022-08-02T02:34:11;15.10;99.90
24162;DHT22;12318;51.262;7.066;2022-08-02T02:36:40;15.10;99.90
24162;DHT22;12318;51.262;7.066;2022-08-02T02:39:11;15.20;99.90
24162;DHT22;12318;51.262;7.066;2022-08-02T02:41:39;15.40;99.90
24162;DHT22;12318;51.262;7.066;2022-08-02T02:44:09;15.40;99.90
24162;DHT22;12318;51.262;7.066;2022-08-02T02:46:39;15.40;99.90
24162;DHT22;12318;51.262;7.066;2022-08-02T02:49:06;15.30;99.90
24162;DHT22;12318;51.262;7.066;2022-08-02T02:51:33;15.30;99.90
24162;DHT22;12318;51.262;7.066;2022-08-02T02:53:59;15.40;99.90
24162;DHT22;12318;51.262;7.066;2022-08-02T02:59:29;15.20;99.90
24162;DHT22;12318;51.262;7.066;2022-08-02T03:01:56;15.30;99.90
24162;DHT22;12318;51.262;7.066;2022-08-02T03:04:23;15.20;99.90
24162;DHT22;12318;51.262;7.066;2022-08-02T03:06:49;15.10;99.90
24162;DHT22;12318;51.262;7.066;2022-08-02T03:09:18;15.00;99.90
24162;DHT22;12318;51.262;7.066;2022-08-02T03:11:47;15.20;99.90
24162;DHT22;12318;51.262;7.066;2022-08-02T03:14:13;15.00;99.90
24162;DHT22;12318;51.262;7.066;2022-08-02T03:19:09;14.90;99.90
24162;DHT22;12318;51.262;7.066;2022-08-02T03:21:37;14.90;99.90
24162;DHT22;12318;51.262;7.066;2022-08-02T03:24:04;14.90;99.90
24162;DHT22;12318;51.262;7.066;2022-08-02T03:26:30;14.80;99.90
24162;DHT22;12318;51.262;7.066;2022-08-02T03:28:56;14.70;99.90
24162;DHT22;12318;51.262;7.066;2022-08-02T03:31:21;14.80;99.90
24162;DHT22;12318;51.262;7.066;2022-08-02T03:33:47;15.10;99.90
24162;DHT22;12318;51.262;7.066;2022-08-02T03:36:18;15.20;99.90
24162;DHT22;12318;51.262;7.066;2022-08-02T03:38:46;15.30;99.90
24162;DHT22;12318;51.262;7.066;2022-08-02T03:41:17;15.20;99.90
24162;DHT22;12318;51.262;7.066;2022-08-02T03:43:45;15.20;99.90
24162;DHT22;12318;51.262;7.066;2022-08-02T03:46:14;15.30;99.90
24162;DHT22;12318;51.262;7.066;2022-08-02T03:48:40;15.20;99.90
24162;DHT22;12318;51.262;7.066;2022-08-02T03:51:06;15.40;99.90
24162;DHT22;12318;51.262;7.066;2022-08-02T03:53:32;15.50;99.90
24162;DHT22;12318;51.262;7.066;2022-08-02T03:55:58;15.60;99.90
24162;DHT22;12318;51.262;7.066;2022-08-02T03:58:25;15.70;99.90
24162;DHT22;12318;51.262;7.066;2022-08-02T04:00:52;15.70;99.90
24162;DHT22;12318;51.262;7.066;2022-08-02T04:03:18;15.70;99.90
24162;DHT22;12318;51.262;7.066;2022-08-02T04:05:43;15.60;99.90
24162;DHT22;12318;51.262;7.066;2022-08-02T04:08:10;15.70;99.90
24162;DHT22;12318;51.262;7.066;2022-08-02T04:10:36;15.70;99.90
24162;DHT22;12318;51.262;7.066;2022-08-02T04:13:20;15.70;99.90
24162;DHT22;12318;51.262;7.066;2022-08-02T04:15:49;15.70;99.90
24162;DHT22;12318;51.262;7.066;2022-08-02T04:18:16;15.70;99.90
24162;DHT22;12318;51.262;7.066;2022-08-02T04:20:44;15.70;99.90
24162;DHT22;12318;51.262;7.066;2022-08-02T04:23:13;15.70;99.90
24162;DHT22;12318;51.262;7.066;2022-08-02T04:25:40;15.80;99.90
24162;DHT22;12318;51.262;7.066;2022-08-02T04:28:07;15.70;99.90
24162;DHT22;12318;51.262;7.066;2022-08-02T04:30:35;15.70;99.90
24162;DHT22;12318;51.262;7.066;2022-08-02T04:33:01;15.70;99.90
24162;DHT22;12318;51.262;7.066;2022-08-02T04:35:28;15.70;99.90
24162;DHT22;12318;51.262;7.066;2022-08-02T04:37:54;15.70;99.90
24162;DHT22;12318;51.262;7.066;2022-08-02T04:40:20;15.70;99.90
24162;DHT22;12318;51.262;7.066;2022-08-02T04:42:46;15.80;99.90
24162;DHT22;12318;51.262;7.066;2022-08-02T04:45:12;15.80;99.90
24162;DHT22;12318;51.262;7.066;2022-08-02T04:47:37;15.80;99.90
24162;DHT22;12318;51.262;7.066;2022-08-02T04:50:03;15.80;99.90
24162;DHT22;12318;51.262;7.066;2022-08-02T04:52:29;15.90;99.90
24162;DHT22;12318;51.262;7.066;2022-08-02T04:54:55;15.90;99.90
24162;DHT22;12318;51.262;7.066;2022-08-02T04:57:22;15.90;99.90
24162;DHT22;12318;51.262;7.066;2022-08-02T05:00:09;15.90;99.90
24162;DHT22;12318;51.262;7.066;2022-08-02T05:02:35;16.00;99.90
24162;DHT22;12318;51.262;7.066;2022-08-02T05:05:01;16.00;99.90
24162;DHT22;12318;51.262;7.066;2022-08-02T05:07:27;16.10;99.90
24162;DHT22;12318;51.262;7.066;2022-08-02T05:09:53;16.10;99.90
24162;DHT22;12318;51.262;7.066;2022-08-02T05:12:19;16.10;99.90
24162;DHT22;12318;51.262;7.066;2022-08-02T05:14:47;16.10;99.90
24162;DHT22;12318;51.262;7.066;2022-08-02T05:17:13;16.10;99.90
24162;DHT22;12318;51.262;7.066;2022-08-02T05:19:38;16.20;99.90
24162;DHT22;12318;51.262;7.066;2022-08-02T05:22:04;16.40;99.90
24162;DHT22;12318;51.262;7.066;2022-08-02T05:24:29;16.50;99.90
24162;DHT22;12318;51.262;7.066;2022-08-02T05:26:55;16.50;99.90
24162;DHT22;12318;51.262;7.066;2022-08-02T05:29:21;16.50;99.90
24162;DHT22;12318;51.262;7.066;2022-08-02T05:31:47;16.70;99.90
24162;DHT22;12318;51.262;7.066;2022-08-02T05:34:13;16.70;99.90
24162;DHT22;12318;51.262;7.066;2022-08-02T05:36:39;16.70;99.90
24162;DHT22;12318;51.262;7.066;2022-08-02T05:39:05;16.80;99.90
24162;DHT22;12318;51.262;7.066;2022-08-02T05:41:30;16.90;99.90
24162;DHT22;12318;51.262;7.066;2022-08-02T05:43:56;17.00;99.90
24162;DHT22;12318;51.262;7.066;2022-08-02T05:46:22;17.10;99.90
24162;DHT22;12318;51.262;7.066;2022-08-02T05:48:48;17.10;99.90
24162;DHT22;12318;51.262;7.066;2022-08-02T05:51:38;17.20;99.90
24162;DHT22;12318;51.262;7.066;2022-08-02T05:54:26;17.30;99.90
24162;DHT22;12318;51.262;7.066;2022-08-02T05:57:02;17.40;99.90
24162;DHT22;12318;51.262;7.066;2022-08-02T05:59:39;17.50;99.90
24162;DHT22;12318;51.262;7.066;2022-08-02T06:05:02;17.60;99.90
24162;DHT22;12318;51.262;7.066;2022-08-02T06:07:29;17.70;99.90
24162;DHT22;12318;51.262;7.066;2022-08-02T06:09:55;17.90;99.90
24162;DHT22;12318;51.262;7.066;2022-08-02T06:12:27;17.80;99.90
24162;DHT22;12318;51.262;7.066;2022-08-02T06:14:55;18.00;99.90
24162;DHT22;12318;51.262;7.066;2022-08-02T06:17:21;18.10;99.90
24162;DHT22;12318;51.262;7.066;2022-08-02T06:19:48;18.30;99.90
24162;DHT22;12318;51.262;7.066;2022-08-02T06:22:15;18.40;99.90
24162;DHT22;12318;51.262;7.066;2022-08-02T06:24:45;18.50;99.90
24162;DHT22;12318;51.262;7.066;2022-08-02T06:27:14;18.60;99.90
24162;DHT22;12318;51.262;7.066;2022-08-02T06:29:42;18.60;99.90
24162;DHT22;12318;51.262;7.066;2022-08-02T06:32:08;18.60;99.90
24162;DHT22;12318;51.262;7.066;2022-08-02T06:34:38;18.70;99.90
24162;DHT22;12318;51.262;7.066;2022-08-02T06:42:57;19.00;99.90
24162;DHT22;12318;51.262;7.066;2022-08-02T06:45:25;19.00;99.90
24162;DHT22;12318;51.262;7.066;2022-08-02T06:47:51;19.20;99.90
24162;DHT22;12318;51.262;7.066;2022-08-02T06:50:18;19.50;99.90
24162;DHT22;12318;51.262;7.066;2022-08-02T06:52:44;19.60;99.90
24162;DHT22;12318;51.262;7.066;2022-08-02T06:55:09;19.60;99.90
24162;DHT22;12318;51.262;7.066;2022-08-02T06:57:35;19.70;99.90
24162;DHT22;12318;51.262;7.066;2022-08-02T07:00:04;19.70;99.90
24162;DHT22;12318;51.262;7.066;2022-08-02T07:02:36;19.90;99.90
24162;DHT22;12318;51.262;7.066;2022-08-02T07:05:04;20.00;99.90
24162;DHT22;12318;51.262;7.066;2022-08-02T07:07:31;20.10;99.90
24162;DHT22;12318;51.262;7.066;2022-08-02T07:09:58;20.00;99.90
24162;DHT22;12318;51.262;7.066;2022-08-02T07:12:24;20.10;99.90
24162;DHT22;12318;51.262;7.066;2022-08-02T07:14:49;19.90;99.90
24162;DHT22;12318;51.262;7.066;2022-08-02T07:17:15;20.20;99.90
24162;DHT22;12318;51.262;7.066;2022-08-02T07:19:41;20.20;99.90
24162;DHT22;12318;51.262;7.066;2022-08-02T07:22:06;20.40;99.90
24162;DHT22;12318;51.262;7.066;2022-08-02T07:24:32;20.50;99.90
24162;DHT22;12318;51.262;7.066;2022-08-02T07:26:58;20.50;99.90
24162;DHT22;12318;51.262;7.066;2022-08-02T07:29:24;20.50;99.90
24162;DHT22;12318;51.262;7.066;2022-08-02T07:31:50;20.40;99.90
24162;DHT22;12318;51.262;7.066;2022-08-02T07:34:16;20.60;99.90
24162;DHT22;12318;51.262;7.066;2022-08-02T07:36:42;20.90;99.90
24162;DHT22;12318;51.262;7.066;2022-08-02T07:39:08;20.90;99.90
24162;DHT22;12318;51.262;7.066;2022-08-02T07:41:33;20.90;99.90
24162;DHT22;12318;51.262;7.066;2022-08-02T07:43:59;21.10;99.90
24162;DHT22;12318;51.262;7.066;2022-08-02T07:46:25;21.20;99.90
24162;DHT22;12318;51.262;7.066;2022-08-02T07:48:50;21.60;99.90
24162;DHT22;12318;51.262;7.066;2022-08-02T07:51:19;21.60;99.90
24162;DHT22;12318;51.262;7.066;2022-08-02T07:53:45;21.60;99.90
24162;DHT22;12318;51.262;7.066;2022-08-02T07:56:11;22.00;99.90
24162;DHT22;12318;51.262;7.066;2022-08-02T07:58:37;22.00;99.90
24162;DHT22;12318;51.262;7.066;2022-08-02T08:01:02;22.30;99.90
24162;DHT22;12318;51.262;7.066;2022-08-02T08:03:28;22.50;99.90
24162;DHT22;12318;51.262;7.066;2022-08-02T08:05:54;22.40;99.90
24162;DHT22;12318;51.262;7.066;2022-08-02T08:08:21;22.40;99.90
24162;DHT22;12318;51.262;7.066;2022-08-02T08:10:47;22.40;99.90
24162;DHT22;12318;51.262;7.066;2022-08-02T08:13:14;22.60;99.90
24162;DHT22;12318;51.262;7.066;2022-08-02T08:15:40;22.70;99.90
24162;DHT22;12318;51.262;7.066;2022-08-02T08:18:05;22.70;99.90
24162;DHT22;12318;51.262;7.066;2022-08-02T08:20:32;22.60;99.90
24162;DHT22;12318;51.262;7.066;2022-08-02T08:22:57;22.90;99.90
24162;DHT22;12318;51.262;7.066;2022-08-02T08:25:23;23.20;99.90
24162;DHT22;12318;51.262;7.066;2022-08-02T08:27:50;22.90;99.90
24162;DHT22;12318;51.262;7.066;2022-08-02T08:30:17;23.00;99.90
24162;DHT22;12318;51.262;7.066;2022-08-02T08:32:44;23.30;99.90
24162;DHT22;12318;51.262;7.066;2022-08-02T08:35:10;23.40;99.90
24162;DHT22;12318;51.262;7.066;2022-08-02T08:37:35;23.50;99.90
24162;DHT22;12318;51.262;7.066;2022-08-02T08:40:06;23.50;99.90
24162;DHT22;12318;51.262;7.066;2022-08-02T08:42:33;23.60;99.90
24162;DHT22;12318;51.262;7.066;2022-08-02T08:45:00;23.90;99.90
24162;DHT22;12318;51.262;7.066;2022-08-02T08:47:34;23.80;99.90
24162;DHT22;12318;51.262;7.066;2022-08-02T08:50:07;23.90;99.90
24162;DHT22;12318;51.262;7.066;2022-08-02T08:52:41;24.10;99.90
24162;DHT22;12318;51.262;7.066;2022-08-02T08:55:09;24.30;99.90
24162;DHT22;12318;51.262;7.066;2022-08-02T08:57:40;24.20;99.90
24162;DHT22;12318;51.262;7.066;2022-08-02T09:00:11;23.90;99.90
24162;DHT22;12318;51.262;7.066;2022-08-02T09:02:41;24.00;99.90
24162;DHT22;12318;51.262;7.066;2022-08-02T09:05:13;24.10;99.90
24162;DHT22;12318;51.262;7.066;2022-08-02T09:07:41;24.30;99.90
24162;DHT22;12318;51.262;7.066;2022-08-02T09:10:31;24.60;99.90
24162;DHT22;12318;51.262;7.066;2022-08-02T09:13:17;24.80;99.90
24162;DHT22;12318;51.262;7.066;2022-08-02T09:15:52;24.70;99.90
24162;DHT22;12318;51.262;7.066;2022-08-02T09:18:18;24.60;99.90
24162;DHT22;12318;51.262;7.066;2022-08-02T09:20:59;24.60;99.90
24162;DHT22;12318;51.262;7.066;2022-08-02T09:23:25;25.00;99.90
24162;DHT22;12318;51.262;7.066;2022-08-02T09:26:00;25.00;99.90
24162;DHT22;12318;51.262;7.066;2022-08-02T09:28:31;25.10;99.90
24162;DHT22;12318;51.262;7.066;2022-08-02T09:31:08;25.20;99.90
24162;DHT22;12318;51.262;7.066;2022-08-02T09:33:36;25.20;99.90
24162;DHT22;12318;51.262;7.066;2022-08-02T09:36:06;25.20;99.90
24162;DHT22;12318;51.262;7.066;2022-08-02T09:38:34;24.90;99.90
24162;DHT22;12318;51.262;7.066;2022-08-02T09:41:00;24.90;99.90
24162;DHT22;12318;51.262;7.066;2022-08-02T09:43:42;25.00;99.90
24162;DHT22;12318;51.262;7.066;2022-08-02T09:46:13;25.20;99.90
24162;DHT22;12318;51.262;7.066;2022-08-02T09:51:22;25.20;99.90
24162;DHT22;12318;51.262;7.066;2022-08-02T09:53:50;25.20;99.90
24162;DHT22;12318;51.262;7.066;2022-08-02T09:56:17;25.30;99.90
24162;DHT22;12318;51.262;7.066;2022-08-02T09:58:43;25.30;99.90
24162;DHT22;12318;51.262;7.066;2022-08-02T10:01:09;25.40;99.90
24162;DHT22;12318;51.262;7.066;2022-08-02T10:03:35;25.40;99.90
24162;DHT22;12318;51.262;7.066;2022-08-02T10:06:01;25.40;99.90
24162;DHT22;12318;51.262;7.066;2022-08-02T10:08:28;25.70;99.90
24162;DHT22;12318;51.262;7.066;2022-08-02T10:10:54;25.90;99.90
24162;DHT22;12318;51.262;7.066;2022-08-02T10:13:33;25.90;99.90
24162;DHT22;12318;51.262;7.066;2022-08-02T10:16:00;25.80;99.90
24162;DHT22;12318;51.262;7.066;2022-08-02T10:18:28;25.60;99.90
24162;DHT22;12318;51.262;7.066;2022-08-02T10:20:55;25.60;99.90
24162;DHT22;12318;51.262;7.066;2022-08-02T10:23:23;25.60;99.90
24162;DHT22;12318;51.262;7.066;2022-08-02T10:25:50;25.60;99.90
24162;DHT22;12318;51.262;7.066;2022-08-02T10:28:19;25.50;99.90
24162;DHT22;12318;51.262;7.066;2022-08-02T10:30:52;25.40;99.90
24162;DHT22;12318;51.262;7.066;2022-08-02T10:33:19;25.10;99.90
24162;DHT22;12318;51.262;7.066;2022-08-02T10:35:46;25.00;99.90
24162;DHT22;12318;51.262;7.066;2022-08-02T10:38:15;25.10;99.90
24162;DHT22;12318;51.262;7.066;2022-08-02T10:43:08;24.80;99.90
24162;DHT22;12318;51.262;7.066;2022-08-02T10:45:34;25.00;99.90
24162;DHT22;12318;51.262;7.066;2022-08-02T10:53:31;25.80;99.90
24162;DHT22;12318;51.262;7.066;2022-08-02T10:56:02;25.70;99.90
24162;DHT22;12318;51.262;7.066;2022-08-02T10:58:29;26.20;99.90
24162;DHT22;12318;51.262;7.066;2022-08-02T11:01:04;26.50;99.90
24162;DHT22;12318;51.262;7.066;2022-08-02T11:06:09;26.70;99.90
24162;DHT22;12318;51.262;7.066;2022-08-02T11:08:36;26.20;99.90
24162;DHT22;12318;51.262;7.066;2022-08-02T11:11:22;26.10;99.90
24162;DHT22;12318;51.262;7.066;2022-08-02T11:14:06;26.30;99.90
24162;DHT22;12318;51.262;7.066;2022-08-02T11:19:21;26.60;99.90
24162;DHT22;12318;51.262;7.066;2022-08-02T11:22:06;26.60;99.90
24162;DHT22;12318;51.262;7.066;2022-08-02T11:24:33;26.10;99.90
24162;DHT22;12318;51.262;7.066;2022-08-02T11:27:07;26.10;99.90
24162;DHT22;12318;51.262;7.066;2022-08-02T11:29:38;26.20;99.90
24162;DHT22;12318;51.262;7.066;2022-08-02T11:32:14;26.30;99.90
24162;DHT22;12318;51.262;7.066;2022-08-02T11:34:42;26.30;99.90
24162;DHT22;12318;51.262;7.066;2022-08-02T11:37:09;26.50;99.90
24162;DHT22;12318;51.262;7.066;2022-08-02T11:39:35;26.40;99.90
24162;DHT22;12318;51.262;7.066;2022-08-02T11:42:01;26.30;99.90
24162;DHT22;12318;51.262;7.066;2022-08-02T11:44:29;26.50;99.90
24162;DHT22;12318;51.262;7.066;2022-08-02T11:47:03;26.60;99.90
24162;DHT22;12318;51.262;7.066;2022-08-02T11:49:30;26.40;99.90
24162;DHT22;12318;51.262;7.066;2022-08-02T11:54:29;26.20;99.90
24162;DHT22;12318;51.262;7.066;2022-08-02T11:57:09;26.20;99.90
24162;DHT22;12318;51.262;7.066;2022-08-02T11:59:39;26.40;99.50
24162;DHT22;12318;51.262;7.066;2022-08-02T12:02:06;26.60;99.90
24162;DHT22;12318;51.262;7.066;2022-08-02T12:04:32;26.50;99.40
24162;DHT22;12318;51.262;7.066;2022-08-02T12:06:59;26.90;99.90
24162;DHT22;12318;51.262;7.066;2022-08-02T12:09:27;27.10;99.90
24162;DHT22;12318;51.262;7.066;2022-08-02T12:11:54;27.10;98.90
24162;DHT22;12318;51.262;7.066;2022-08-02T12:14:21;27.30;99.90
24162;DHT22;12318;51.262;7.066;2022-08-02T12:16:47;27.30;98.70
24162;DHT22;12318;51.262;7.066;2022-08-02T12:19:32;27.40;98.80
24162;DHT22;12318;51.262;7.066;2022-08-02T12:22:18;27.30;99.90
24162;DHT22;12318;51.262;7.066;2022-08-02T12:24:55;27.10;97.90
24162;DHT22;12318;51.262;7.066;2022-08-02T12:27:36;27.10;97.70
24162;DHT22;12318;51.262;7.066;2022-08-02T12:30:09;27.30;98.70
24162;DHT22;12318;51.262;7.066;2022-08-02T12:32:36;27.10;98.70
24162;DHT22;12318;51.262;7.066;2022-08-02T12:35:05;27.30;99.20
24162;DHT22;12318;51.262;7.066;2022-08-02T12:37:40;27.30;99.00
24162;DHT22;12318;51.262;7.066;2022-08-02T12:40:19;27.40;98.60
24162;DHT22;12318;51.262;7.066;2022-08-02T12:42:50;27.30;98.10
24162;DHT22;12318;51.262;7.066;2022-08-02T12:45:16;27.40;99.10
24162;DHT22;12318;51.262;7.066;2022-08-02T12:47:51;27.60;98.10
24162;DHT22;12318;51.262;7.066;2022-08-02T12:50:24;27.50;98.40
24162;DHT22;12318;51.262;7.066;2022-08-02T12:55:30;27.50;99.20
24162;DHT22;12318;51.262;7.066;2022-08-02T12:58:03;27.40;97.50
24162;DHT22;12318;51.262;7.066;2022-08-02T13:00:31;27.50;98.10
24162;DHT22;12318;51.262;7.066;2022-08-02T13:02:58;27.70;99.10
24162;DHT22;12318;51.262;7.066;2022-08-02T13:05:25;27.90;98.90
24162;DHT22;12318;51.262;7.066;2022-08-02T13:07:54;27.90;97.40
24162;DHT22;12318;51.262;7.066;2022-08-02T13:10:20;28.20;97.20
24162;DHT22;12318;51.262;7.066;2022-08-02T13:12:46;28.00;96.20
24162;DHT22;12318;51.262;7.066;2022-08-02T13:15:13;27.90;97.40
24162;DHT22;12318;51.262;7.066;2022-08-02T13:17:38;27.90;96.00
24162;DHT22;12318;51.262;7.066;2022-08-02T13:20:05;27.90;95.40
24162;DHT22;12318;51.262;7.066;2022-08-02T13:22:31;27.90;96.20
24162;DHT22;12318;51.262;7.066;2022-08-02T13:24:57;28.30;96.30
24162;DHT22;12318;51.262;7.066;2022-08-02T13:27:24;27.80;95.70
24162;DHT22;12318;51.262;7.066;2022-08-02T13:29:50;27.80;96.40
24162;DHT22;12318;51.262;7.066;2022-08-02T13:32:16;27.60;97.30
24162;DHT22;12318;51.262;7.066;2022-08-02T13:34:42;27.60;97.30
24162;DHT22;12318;51.262;7.066;2022-08-02T13:37:08;27.60;96.30
24162;DHT22;12318;51.262;7.066;2022-08-02T13:39:33;27.90;96.00
24162;DHT22;12318;51.262;7.066;2022-08-02T13:41:59;28.00;97.50
24162;DHT22;12318;51.262;7.066;2022-08-02T13:44:24;27.90;96.30
24162;DHT22;12318;51.262;7.066;2022-08-02T13:46:56;28.10;94.10
24162;DHT22;12318;51.262;7.066;2022-08-02T13:49:21;28.00;94.20
24162;DHT22;12318;51.262;7.066;2022-08-02T13:51:47;28.00;94.00
24162;DHT22;12318;51.262;7.066;2022-08-02T13:54:14;28.00;94.00
24162;DHT22;12318;51.262;7.066;2022-08-02T13:56:39;27.90;93.80
24162;DHT22;12318;51.262;7.066;2022-08-02T13:59:27;28.00;92.80
24162;DHT22;12318;51.262;7.066;2022-08-02T14:01:54;28.00;94.40
24162;DHT22;12318;51.262;7.066;2022-08-02T14:04:21;28.00;92.80
24162;DHT22;12318;51.262;7.066;2022-08-02T14:06:47;28.10;93.10
24162;DHT22;12318;51.262;7.066;2022-08-02T14:09:44;28.40;93.90
24162;DHT22;12318;51.262;7.066;2022-08-02T14:12:10;28.50;93.30
24162;DHT22;12318;51.262;7.066;2022-08-02T14:14:37;28.30;92.90
24162;DHT22;12318;51.262;7.066;2022-08-02T14:17:04;28.10;92.90
24162;DHT22;12318;51.262;7.066;2022-08-02T14:19:29;27.80;93.40
24162;DHT22;12318;51.262;7.066;2022-08-02T14:21:55;27.80;93.00
24162;DHT22;12318;51.262;7.066;2022-08-02T14:24:22;27.90;92.60
24162;DHT22;12318;51.262;7.066;2022-08-02T14:26:48;27.90;93.50
24162;DHT22;12318;51.262;7.066;2022-08-02T14:29:15;28.00;94.30
24162;DHT22;12318;51.262;7.066;2022-08-02T14:31:41;27.90;94.80
24162;DHT22;12318;51.262;7.066;2022-08-02T14:34:07;27.90;94.50
24162;DHT22;12318;51.262;7.066;2022-08-02T14:36:33;28.00;95.50
24162;DHT22;12318;51.262;7.066;2022-08-02T14:39:15;27.90;95.50
24162;DHT22;12318;51.262;7.066;2022-08-02T14:41:40;27.90;95.00
24162;DHT22;12318;51.262;7.066;2022-08-02T14:44:07;28.20;96.20
24162;DHT22;12318;51.262;7.066;2022-08-02T14:46:38;27.90;94.00
24162;DHT22;12318;51.262;7.066;2022-08-02T14:49:09;27.90;94.10
24162;DHT22;12318;51.262;7.066;2022-08-02T14:51:36;28.00;93.80
24162;DHT22;12318;51.262;7.066;2022-08-02T14:54:06;28.30;94.30
24162;DHT22;12318;51.262;7.066;2022-08-02T14:56:33;28.50;93.10
24162;DHT22;12318;51.262;7.066;2022-08-02T14:59:05;28.50;93.00
24162;DHT22;12318;51.262;7.066;2022-08-02T15:01:31;28.30;94.30
24162;DHT22;12318;51.262;7.066;2022-08-02T15:03:57;28.30;94.40
24162;DHT22;12318;51.262;7.066;2022-08-02T15:06:22;28.40;93.80
24162;DHT22;12318;51.262;7.066;2022-08-02T15:08:50;28.40;93.80
24162;DHT22;12318;51.262;7.066;2022-08-02T15:11:15;28.50;93.50
24162;DHT22;12318;51.262;7.066;2022-08-02T15:13:41;28.60;95.00
24162;DHT22;12318;51.262;7.066;2022-08-02T15:16:07;28.40;93.90
24162;DHT22;12318;51.262;7.066;2022-08-02T15:18:33;28.50;94.90
24162;DHT22;12318;51.262;7.066;2022-08-02T15:20:59;28.50;93.60
24162;DHT22;12318;51.262;7.066;2022-08-02T15:23:25;28.70;95.30
24162;DHT22;12318;51.262;7.066;2022-08-02T15:25:50;28.40;93.90
24162;DHT22;12318;51.262;7.066;2022-08-02T15:28:17;28.40;93.70
24162;DHT22;12318;51.262;7.066;2022-08-02T15:30:43;28.70;93.90
24162;DHT22;12318;51.262;7.066;2022-08-02T15:33:08;28.80;93.90
24162;DHT22;12318;51.262;7.066;2022-08-02T15:35:34;29.10;93.30
24162;DHT22;12318;51.262;7.066;2022-08-02T15:38:00;29.30;92.20
24162;DHT22;12318;51.262;7.066;2022-08-02T15:40:26;29.40;92.00
24162;DHT22;12318;51.262;7.066;2022-08-02T15:42:52;29.70;92.70
24162;DHT22;12318;51.262;7.066;2022-08-02T15:45:18;29.20;91.50
24162;DHT22;12318;51.262;7.066;2022-08-02T15:47:44;29.00;92.00
24162;DHT22;12318;51.262;7.066;2022-08-02T15:50:11;29.20;91.30
24162;DHT22;12318;51.262;7.066;2022-08-02T15:52:36;29.10;92.50
24162;DHT22;12318;51.262;7.066;2022-08-02T15:55:02;29.10;91.10
24162;DHT22;12318;51.262;7.066;2022-08-02T15:57:28;28.90;92.60
24162;DHT22;12318;51.262;7.066;2022-08-02T15:59:54;28.80;92.00
24162;DHT22;12318;51.262;7.066;2022-08-02T16:02:20;29.30;92.70
24162;DHT22;12318;51.262;7.066;2022-08-02T16:04:47;29.60;92.60
24162;DHT22;12318;51.262;7.066;2022-08-02T16:07:13;29.70;92.10
24162;DHT22;12318;51.262;7.066;2022-08-02T16:09:39;29.40;92.50
24162;DHT22;12318;51.262;7.066;2022-08-02T16:12:05;29.20;92.00
24162;DHT22;12318;51.262;7.066;2022-08-02T16:14:32;28.90;91.30
24162;DHT22;12318;51.262;7.066;2022-08-02T16:16:58;29.00;92.50
24162;DHT22;12318;51.262;7.066;2022-08-02T16:19:24;29.20;91.00
24162;DHT22;12318;51.262;7.066;2022-08-02T16:21:51;29.70;90.50
24162;DHT22;12318;51.262;7.066;2022-08-02T16:24:17;29.70;90.70
24162;DHT22;12318;51.262;7.066;2022-08-02T16:26:43;29.20;90.40
24162;DHT22;12318;51.262;7.066;2022-08-02T16:29:09;29.40;91.20